Terminal Aerodrome Forecast
Issued by NWS Albany, NY

Home | Current Version | Previous Version | Text Only | Print | Product List | Glossary On
Versions: 1 2 3 4 5 6 7 8 9 10 11 12 13 14 15 16 17 18 19 20 21
000
FTUS41 KALY 222358 CCA
TAFGFL
TAF COR
KGFL 222358Z 2300/2324 12004KT 6SM -FZRAPL BR BKN005 OVC017
     FM230500 00000KT 1SM BR VCSH OVC025
     FM230900 00000KT 1SM BR OVC025 PROB30 2309/2310 3/4SM -RA BR
      OVC015
     FM231000 00000KT 1SM -RA BR OVC015
     FM231100 VRB03KT 6SM -RA OVC015 WS020/18030KT
     FM231200 VRB03KT 1SM +RA OVC010 WS020/18030KT
     FM231500 20004KT 1SM +RA OVC008
     FM232200 21005KT P6SM OVC045 PROB30 2322/2323 4SM -SHRA OVC025=

USA.gov is the U.S. government's official web portal to all federal, state and local government web resources and services.